Time;durP1;ratioP1;P1;durP2;ratioP2;P2;SDS_P1;SDS_P2;PMS_P1;PMS_P2;Temp;Humidity;BMP_temperature;BMP_pressure;BME280_temperature;BME280_humidity;BME280_pressure;Samples;Min_cycle;Max_cycle;Signal;HPM_P1;HPM_P2
2022/10/21 00:00:25;;;;;;;4.47;1.90;;;;;;;;;;5041827;28;20475;-68
2022/10/21 00:02:51;;;;;;;3.30;1.50;;;;;;;;;;5040757;28;20033;-68
2022/10/21 00:05:16;;;;;;;3.22;1.30;;;;;;;;;;5039058;28;20047;-68
2022/10/21 00:07:41;;;;;;;4.90;1.50;;;;;;;;;;5041304;28;20124;-68
2022/10/21 00:10:07;;;;;;;4.18;2.05;;;;;;;;;;5041431;28;20021;-67
2022/10/21 00:12:33;;;;;;;8.25;1.70;;;;;;;;;;5042254;28;20029;-68
2022/10/21 00:14:58;;;;;;;4.22;1.40;;;;;;;;;;5041361;28;20037;-68
2022/10/21 00:17:24;;;;;;;1.98;1.20;;;;;;;;;;5041404;28;20037;-68
2022/10/21 00:19:49;;;;;;;1.60;1.35;;;;;;;;;;5040989;28;20128;-68
2022/10/21 00:22:14;;;;;;;3.17;1.10;;;;;;;;;;5041912;28;20111;-68
2022/10/21 00:24:40;;;;;;;2.47;1.42;;;;;;;;;;5042079;28;20059;-67
2022/10/21 00:27:05;;;;;;;3.33;1.27;;;;;;;;;;5041744;28;20044;-68
2022/10/21 00:29:31;;;;;;;2.63;1.30;;;;;;;;;;5037887;28;20048;-67
2022/10/21 00:31:56;;;;;;;3.30;1.45;;;;;;;;;;5038031;28;20049;-68
2022/10/21 00:34:22;;;;;;;2.47;1.38;;;;;;;;;;5041459;28;20072;-68
2022/10/21 00:36:47;;;;;;;4.45;1.20;;;;;;;;;;5038622;28;20033;-68
2022/10/21 00:39:13;;;;;;;3.22;1.45;;;;;;;;;;5026764;28;20780;-68
2022/10/21 00:41:38;;;;;;;6.32;1.48;;;;;;;;;;5042145;28;20037;-68
2022/10/21 00:44:06;;;;;;;1.52;1.05;;;;;;;;;;5057290;28;20045;-68
2022/10/21 00:46:39;;;;;;;3.17;1.05;;;;;;;;;;5046596;28;20052;-68
2022/10/21 00:49:18;;;;;;;3.45;1.27;;;;;;;;;;5060394;28;20028;-68
2022/10/21 00:51:45;;;;;;;4.63;1.23;;;;;;;;;;5062159;28;20278;-68
2022/10/21 00:54:11;;;;;;;2.58;1.25;;;;;;;;;;5059742;28;20056;-68
2022/10/21 00:56:40;;;;;;;2.58;1.33;;;;;;;;;;5057600;28;20100;-68
2022/10/21 00:59:05;;;;;;;3.28;1.33;;;;;;;;;;5063240;28;20677;-68
2022/10/21 01:01:31;;;;;;;2.90;1.60;;;;;;;;;;5064932;28;20063;-68
2022/10/21 01:03:56;;;;;;;4.13;1.90;;;;;;;;;;5065728;28;20032;-68
2022/10/21 01:06:24;;;;;;;3.08;1.40;;;;;;;;;;5064847;28;20032;-68
2022/10/21 01:08:53;;;;;;;3.65;1.40;;;;;;;;;;5063984;28;20108;-68
2022/10/21 01:11:20;;;;;;;8.88;1.27;;;;;;;;;;5064726;28;20070;-68
2022/10/21 01:14:23;;;;;;;2.15;1.27;;;;;;;;;;5063837;28;20035;-69
2022/10/21 01:17:11;;;;;;;3.67;1.50;;;;;;;;;;5055018;28;20122;-68
2022/10/21 01:20:08;;;;;;;4.03;1.40;;;;;;;;;;5042920;28;20033;-68
2022/10/21 01:23:01;;;;;;;3.53;1.40;;;;;;;;;;5044462;28;20063;-67
2022/10/21 01:25:27;;;;;;;4.53;1.48;;;;;;;;;;5043253;28;20032;-68
2022/10/21 01:28:15;;;;;;;4.50;1.30;;;;;;;;;;5043561;28;20036;-68
2022/10/21 01:30:56;;;;;;;3.38;1.33;;;;;;;;;;5045024;28;20515;-68
2022/10/21 01:33:30;;;;;;;6.53;1.40;;;;;;;;;;5045083;28;20591;-68
2022/10/21 01:36:15;;;;;;;2.22;1.55;;;;;;;;;;5045315;28;20059;-68
2022/10/21 01:38:59;;;;;;;3.58;1.27;;;;;;;;;;5041484;28;20033;-68
2022/10/21 01:41:31;;;;;;;1.92;1.13;;;;;;;;;;5044922;28;20460;-69
2022/10/21 01:44:15;;;;;;;4.13;1.30;;;;;;;;;;5044575;28;20697;-68
2022/10/21 01:47:11;;;;;;;2.17;1.10;;;;;;;;;;5039442;28;20129;-68
2022/10/21 01:49:46;;;;;;;3.15;1.85;;;;;;;;;;5014243;28;20523;-67
2022/10/21 01:52:13;;;;;;;2.35;1.25;;;;;;;;;;5023029;28;20025;-67
2022/10/21 01:54:51;;;;;;;5.22;1.55;;;;;;;;;;5024774;28;20040;-68
2022/10/21 01:57:20;;;;;;;2.80;1.10;;;;;;;;;;5041028;28;20036;-69
2022/10/21 01:59:46;;;;;;;3.10;1.33;;;;;;;;;;5044601;28;20033;-68
2022/10/21 02:02:14;;;;;;;1.95;1.48;;;;;;;;;;5044611;28;20039;-68
2022/10/21 02:04:41;;;;;;;7.85;1.60;;;;;;;;;;5042612;28;20045;-68
2022/10/21 02:07:07;;;;;;;3.50;1.60;;;;;;;;;;5043914;28;20028;-67
2022/10/21 02:09:32;;;;;;;4.82;1.90;;;;;;;;;;5044783;28;20025;-68
2022/10/21 02:12:01;;;;;;;5.40;1.50;;;;;;;;;;5044007;28;20040;-68
2022/10/21 02:14:41;;;;;;;3.45;1.40;;;;;;;;;;5043886;28;20048;-68
2022/10/21 02:17:14;;;;;;;4.65;1.60;;;;;;;;;;5043976;28;20044;-68
2022/10/21 02:19:39;;;;;;;5.13;1.55;;;;;;;;;;5043863;28;20490;-68
2022/10/21 02:22:08;;;;;;;3.25;1.50;;;;;;;;;;5043892;28;20017;-67
2022/10/21 02:24:52;;;;;;;4.53;1.67;;;;;;;;;;5044338;28;20112;-68
2022/10/21 02:27:18;;;;;;;6.90;1.40;;;;;;;;;;5044814;28;20053;-68
2022/10/21 02:29:45;;;;;;;4.47;1.40;;;;;;;;;;5044597;28;20200;-68
2022/10/21 02:32:37;;;;;;;2.47;1.40;;;;;;;;;;5044323;28;20029;-68
2022/10/21 02:35:02;;;;;;;5.97;1.90;;;;;;;;;;5044864;28;20064;-68
2022/10/21 02:37:37;;;;;;;1.88;1.30;;;;;;;;;;5036410;28;20067;-67
2022/10/21 02:40:14;;;;;;;3.97;1.40;;;;;;;;;;5045472;28;20021;-68
2022/10/21 02:42:45;;;;;;;4.90;1.33;;;;;;;;;;5046018;28;20024;-68
2022/10/21 02:45:10;;;;;;;3.65;1.60;;;;;;;;;;5041328;28;20033;-68
2022/10/21 02:47:37;;;;;;;2.83;1.52;;;;;;;;;;5057324;28;20043;-67
2022/10/21 02:50:03;;;;;;;5.47;1.63;;;;;;;;;;5065241;28;20094;-68
2022/10/21 02:52:28;;;;;;;3.75;1.60;;;;;;;;;;5049268;28;20028;-68
2022/10/21 02:54:53;;;;;;;5.63;1.90;;;;;;;;;;5043845;28;20059;-68
2022/10/21 02:57:18;;;;;;;3.53;1.45;;;;;;;;;;5045315;28;20110;-68
2022/10/21 02:59:44;;;;;;;2.58;1.73;;;;;;;;;;5044924;28;20042;-68
2022/10/21 03:02:09;;;;;;;3.60;1.60;;;;;;;;;;5045099;28;20119;-68
2022/10/21 03:04:34;;;;;;;4.57;1.63;;;;;;;;;;5045282;28;20043;-68
2022/10/21 03:07:00;;;;;;;6.00;1.88;;;;;;;;;;5041491;28;20025;-68
2022/10/21 03:09:25;;;;;;;3.53;1.58;;;;;;;;;;5045023;28;20040;-68
2022/10/21 03:11:50;;;;;;;4.18;1.60;;;;;;;;;;5045202;28;20037;-67
2022/10/21 03:14:15;;;;;;;2.83;1.50;;;;;;;;;;5045165;28;20090;-68
2022/10/21 03:16:41;;;;;;;3.95;1.60;;;;;;;;;;5045262;28;20036;-68
2022/10/21 03:19:06;;;;;;;2.30;1.60;;;;;;;;;;5043610;28;20125;-68
2022/10/21 03:21:31;;;;;;;5.05;1.92;;;;;;;;;;5044588;28;20031;-68
2022/10/21 03:23:57;;;;;;;2.88;1.60;;;;;;;;;;5044732;28;20052;-68
2022/10/21 03:26:22;;;;;;;5.55;1.70;;;;;;;;;;5044581;28;20418;-68
2022/10/21 03:28:47;;;;;;;8.07;2.08;;;;;;;;;;5043373;28;20036;-68
2022/10/21 03:31:13;;;;;;;6.90;1.85;;;;;;;;;;5042552;28;20021;-67
2022/10/21 03:33:38;;;;;;;11.77;1.80;;;;;;;;;;5045078;28;20063;-67
2022/10/21 03:36:04;;;;;;;3.67;1.55;;;;;;;;;;5044731;28;20115;-68
2022/10/21 03:38:29;;;;;;;2.97;1.48;;;;;;;;;;5044419;28;20041;-67
2022/10/21 03:40:54;;;;;;;4.78;1.73;;;;;;;;;;5042791;28;20546;-68
2022/10/21 03:43:20;;;;;;;4.18;1.70;;;;;;;;;;5044286;28;20052;-68
2022/10/21 03:45:46;;;;;;;4.97;1.80;;;;;;;;;;5044492;28;20028;-68
2022/10/21 03:48:12;;;;;;;7.25;1.77;;;;;;;;;;5044331;28;20040;-68
2022/10/21 03:50:37;;;;;;;6.10;1.50;;;;;;;;;;5043921;28;20029;-68
2022/10/21 03:53:02;;;;;;;3.90;1.42;;;;;;;;;;5044021;28;20048;-68
2022/10/21 03:55:28;;;;;;;3.05;1.65;;;;;;;;;;5043967;28;20048;-68
2022/10/21 03:57:53;;;;;;;3.88;1.33;;;;;;;;;;5039314;28;20051;-68
2022/10/21 04:00:19;;;;;;;3.47;1.48;;;;;;;;;;5024062;28;20606;-68
2022/10/21 04:02:44;;;;;;;7.45;1.88;;;;;;;;;;5024085;28;20098;-68
2022/10/21 04:05:10;;;;;;;6.47;1.45;;;;;;;;;;5024207;28;20048;-68
2022/10/21 04:07:36;;;;;;;3.80;1.65;;;;;;;;;;5024358;28;20037;-68
2022/10/21 04:10:03;;;;;;;3.35;1.75;;;;;;;;;;5024316;28;20394;-67
2022/10/21 04:12:28;;;;;;;2.83;1.25;;;;;;;;;;5023700;28;20117;-68
2022/10/21 04:14:53;;;;;;;5.50;1.70;;;;;;;;;;5036085;28;20131;-68
2022/10/21 04:17:18;;;;;;;6.03;1.55;;;;;;;;;;5044507;28;20037;-68
2022/10/21 04:19:44;;;;;;;4.72;2.30;;;;;;;;;;5044242;28;20029;-67
2022/10/21 04:22:09;;;;;;;4.65;1.77;;;;;;;;;;5044035;28;20141;-68
2022/10/21 04:24:34;;;;;;;3.85;2.00;;;;;;;;;;5044981;28;20025;-68
2022/10/21 04:27:00;;;;;;;4.80;1.70;;;;;;;;;;5044029;28;20064;-68
2022/10/21 04:29:25;;;;;;;2.42;1.33;;;;;;;;;;5044324;28;20049;-68
2022/10/21 04:31:50;;;;;;;5.65;1.60;;;;;;;;;;5043334;28;20052;-68
2022/10/21 04:34:15;;;;;;;9.10;2.10;;;;;;;;;;5044708;28;20036;-68
2022/10/21 04:36:41;;;;;;;5.97;1.70;;;;;;;;;;5047046;28;20115;-68
2022/10/21 04:39:06;;;;;;;5.18;1.83;;;;;;;;;;5047768;28;20090;-68
2022/10/21 04:41:31;;;;;;;3.72;1.70;;;;;;;;;;5047885;28;20133;-68
2022/10/21 04:43:57;;;;;;;2.95;1.55;;;;;;;;;;5048160;28;20061;-68
2022/10/21 04:46:22;;;;;;;6.72;1.85;;;;;;;;;;5045146;28;20398;-67
2022/10/21 04:48:47;;;;;;;7.13;2.13;;;;;;;;;;5046725;28;20554;-68
2022/10/21 04:51:13;;;;;;;2.50;1.63;;;;;;;;;;5047262;28;20037;-68
2022/10/21 04:53:38;;;;;;;5.55;1.83;;;;;;;;;;5047113;28;20049;-68
2022/10/21 04:56:04;;;;;;;3.95;1.92;;;;;;;;;;5045390;28;20116;-68
2022/10/21 04:58:29;;;;;;;4.40;1.88;;;;;;;;;;5047519;28;20033;-68
2022/10/21 05:00:55;;;;;;;6.35;1.73;;;;;;;;;;5045890;28;20025;-68
2022/10/21 05:03:20;;;;;;;7.15;2.05;;;;;;;;;;5060522;28;20101;-68
2022/10/21 05:05:52;;;;;;;4.88;1.90;;;;;;;;;;5047096;28;20071;-67
2022/10/21 05:08:18;;;;;;;6.35;2.35;;;;;;;;;;5046013;28;20135;-68
2022/10/21 05:10:44;;;;;;;9.40;2.25;;;;;;;;;;5045121;28;20041;-68
2022/10/21 05:13:09;;;;;;;6.90;2.00;;;;;;;;;;5030647;28;20044;-68
2022/10/21 05:15:35;;;;;;;6.13;1.98;;;;;;;;;;5026913;28;20514;-68
2022/10/21 05:18:00;;;;;;;9.30;2.45;;;;;;;;;;5026781;28;20037;-68
2022/10/21 05:20:26;;;;;;;7.65;2.28;;;;;;;;;;5026881;28;20507;-68
2022/10/21 05:22:52;;;;;;;3.72;1.92;;;;;;;;;;5028688;28;20041;-67
2022/10/21 05:25:18;;;;;;;9.55;2.22;;;;;;;;;;5042948;28;20700;-67
2022/10/21 05:27:43;;;;;;;6.05;1.80;;;;;;;;;;5047083;28;20025;-68
2022/10/21 05:30:09;;;;;;;6.97;2.28;;;;;;;;;;5045861;28;20040;-68
2022/10/21 05:32:35;;;;;;;5.43;2.00;;;;;;;;;;5044790;28;20041;-68
2022/10/21 05:35:00;;;;;;;10.00;2.03;;;;;;;;;;5046464;28;20059;-68
2022/10/21 05:37:25;;;;;;;5.45;2.03;;;;;;;;;;5043102;28;20091;-68
2022/10/21 05:39:50;;;;;;;5.60;2.08;;;;;;;;;;5046531;28;20029;-68
2022/10/21 05:42:16;;;;;;;7.53;2.20;;;;;;;;;;5045858;28;20080;-68
2022/10/21 05:44:41;;;;;;;4.13;2.08;;;;;;;;;;5044773;28;20048;-68
2022/10/21 05:47:07;;;;;;;3.92;2.20;;;;;;;;;;5045406;28;20040;-68
2022/10/21 05:49:32;;;;;;;4.20;1.95;;;;;;;;;;5044457;28;20560;-68
2022/10/21 05:51:57;;;;;;;3.85;2.25;;;;;;;;;;5043716;28;20568;-68
2022/10/21 05:54:23;;;;;;;7.18;2.08;;;;;;;;;;5044293;28;20039;-68
2022/10/21 05:56:48;;;;;;;5.70;1.95;;;;;;;;;;5043796;28;20057;-68
2022/10/21 05:59:13;;;;;;;3.92;1.85;;;;;;;;;;5043056;28;20703;-68
2022/10/21 06:01:39;;;;;;;5.05;2.00;;;;;;;;;;5044391;28;20501;-68
2022/10/21 06:04:05;;;;;;;4.10;1.90;;;;;;;;;;5033236;28;20025;-68
2022/10/21 06:06:31;;;;;;;7.95;2.15;;;;;;;;;;5026425;28;20026;-68
2022/10/21 06:08:56;;;;;;;5.15;1.90;;;;;;;;;;5025533;28;20049;-68
2022/10/21 06:11:21;;;;;;;3.85;1.80;;;;;;;;;;5034155;28;20049;-67
2022/10/21 06:13:47;;;;;;;5.25;2.25;;;;;;;;;;5044340;28;20094;-68
2022/10/21 06:16:13;;;;;;;2.97;2.08;;;;;;;;;;5045471;28;20048;-68
2022/10/21 06:18:40;;;;;;;7.28;2.20;;;;;;;;;;5045735;28;20059;-68
2022/10/21 06:21:06;;;;;;;3.20;1.95;;;;;;;;;;5044218;28;20041;-68
2022/10/21 06:23:32;;;;;;;5.10;2.53;;;;;;;;;;5044999;28;20560;-68
2022/10/21 06:26:03;;;;;;;5.13;2.45;;;;;;;;;;5041268;28;20056;-68
2022/10/21 06:28:30;;;;;;;4.07;2.53;;;;;;;;;;5037369;28;20036;-67
2022/10/21 06:30:56;;;;;;;4.72;2.47;;;;;;;;;;5041997;28;20488;-68
2022/10/21 06:33:22;;;;;;;9.05;2.80;;;;;;;;;;5044542;28;20040;-68
2022/10/21 06:35:47;;;;;;;5.88;2.55;;;;;;;;;;5044551;28;20037;-68
2022/10/21 06:38:13;;;;;;;5.95;2.28;;;;;;;;;;5044082;28;20036;-68
2022/10/21 06:40:39;;;;;;;4.13;2.60;;;;;;;;;;5042115;28;20468;-68
2022/10/21 06:43:04;;;;;;;6.75;2.45;;;;;;;;;;5043423;28;20048;-67
2022/10/21 06:45:29;;;;;;;3.70;2.00;;;;;;;;;;5044424;28;20494;-68
2022/10/21 06:47:55;;;;;;;4.63;2.28;;;;;;;;;;5041869;28;20044;-67
2022/10/21 06:50:20;;;;;;;4.30;2.20;;;;;;;;;;5037772;28;20029;-68
2022/10/21 06:52:47;;;;;;;8.00;2.55;;;;;;;;;;5036908;28;20903;-68
2022/10/21 06:55:13;;;;;;;4.60;2.35;;;;;;;;;;5018318;28;20084;-68
2022/10/21 06:57:38;;;;;;;5.30;2.67;;;;;;;;;;5040865;28;20068;-68
2022/10/21 07:00:04;;;;;;;4.80;2.50;;;;;;;;;;5045083;28;20091;-68
2022/10/21 07:02:30;;;;;;;3.47;2.20;;;;;;;;;;5046206;28;20063;-68
2022/10/21 07:04:56;;;;;;;7.78;2.15;;;;;;;;;;5045369;28;20041;-68
2022/10/21 07:07:22;;;;;;;5.40;2.60;;;;;;;;;;5044960;28;20055;-67
2022/10/21 07:09:47;;;;;;;6.07;3.00;;;;;;;;;;5046020;28;20080;-68
2022/10/21 07:12:12;;;;;;;6.22;2.65;;;;;;;;;;5046075;28;20132;-68
2022/10/21 07:14:38;;;;;;;5.75;2.30;;;;;;;;;;5044211;28;20044;-68
2022/10/21 07:17:03;;;;;;;6.60;2.30;;;;;;;;;;5036998;28;20132;-68
2022/10/21 07:19:29;;;;;;;8.00;2.92;;;;;;;;;;5045705;28;20037;-68
2022/10/21 07:21:54;;;;;;;6.10;2.33;;;;;;;;;;5046220;28;20116;-68
2022/10/21 07:24:20;;;;;;;4.80;2.42;;;;;;;;;;5047793;28;20017;-68
2022/10/21 07:26:46;;;;;;;5.60;2.17;;;;;;;;;;5043608;28;20061;-68
2022/10/21 07:29:12;;;;;;;9.38;2.78;;;;;;;;;;5043498;28;20044;-67
2022/10/21 07:31:37;;;;;;;6.25;2.10;;;;;;;;;;5044261;28;20041;-69
2022/10/21 07:34:05;;;;;;;6.70;2.30;;;;;;;;;;5042898;28;20136;-68
2022/10/21 07:36:32;;;;;;;6.05;2.17;;;;;;;;;;5046378;28;20029;-68
2022/10/21 07:39:02;;;;;;;5.95;2.40;;;;;;;;;;5040721;28;20079;-68
2022/10/21 07:41:33;;;;;;;8.50;2.85;;;;;;;;;;5025632;28;20037;-68
2022/10/21 07:43:59;;;;;;;8.63;3.50;;;;;;;;;;5025993;28;20059;-68
2022/10/21 07:46:25;;;;;;;9.27;4.00;;;;;;;;;;5037122;28;20033;-67
2022/10/21 07:48:51;;;;;;;8.75;3.90;;;;;;;;;;5041206;28;20036;-68
2022/10/21 07:51:20;;;;;;;14.07;4.53;;;;;;;;;;5047770;28;20029;-68
2022/10/21 07:53:45;;;;;;;9.07;4.22;;;;;;;;;;5045409;28;20052;-68
2022/10/21 07:56:14;;;;;;;10.70;4.90;;;;;;;;;;5047195;28;20067;-68
2022/10/21 07:58:41;;;;;;;9.75;4.43;;;;;;;;;;5047293;28;20037;-66
2022/10/21 08:01:08;;;;;;;6.22;3.35;;;;;;;;;;5047404;28;20570;-68
2022/10/21 08:03:33;;;;;;;5.85;3.25;;;;;;;;;;5047585;28;20149;-68
2022/10/21 08:05:59;;;;;;;4.50;2.58;;;;;;;;;;5047662;28;20096;-68
2022/10/21 08:08:25;;;;;;;5.40;2.17;;;;;;;;;;5049560;28;20512;-68
2022/10/21 08:10:52;;;;;;;3.97;1.73;;;;;;;;;;5051809;28;20041;-68
2022/10/21 08:13:18;;;;;;;2.60;1.42;;;;;;;;;;5048972;28;20159;-67
2022/10/21 08:15:44;;;;;;;6.13;1.33;;;;;;;;;;5051615;28;20100;-68
2022/10/21 08:18:10;;;;;;;2.70;1.63;;;;;;;;;;5052442;28;20028;-68
2022/10/21 08:20:40;;;;;;;4.13;1.30;;;;;;;;;;5050586;28;20070;-68
2022/10/21 08:23:06;;;;;;;3.30;1.35;;;;;;;;;;5051531;28;20041;-68
2022/10/21 08:25:32;;;;;;;2.28;1.25;;;;;;;;;;5051192;28;20132;-68
2022/10/21 08:27:57;;;;;;;2.88;1.10;;;;;;;;;;5050041;28;20124;-68
2022/10/21 08:30:24;;;;;;;2.45;1.55;;;;;;;;;;5050290;28;20406;-68
2022/10/21 08:32:49;;;;;;;2.80;1.60;;;;;;;;;;5050346;28;20029;-68
2022/10/21 08:35:14;;;;;;;3.28;1.40;;;;;;;;;;5051331;28;20052;-68
2022/10/21 08:37:40;;;;;;;1.83;1.30;;;;;;;;;;5051517;28;20052;-68
2022/10/21 08:40:07;;;;;;;5.47;0.95;;;;;;;;;;5045975;28;20037;-68
2022/10/21 08:42:32;;;;;;;3.15;0.80;;;;;;;;;;5050993;28;20032;-67
2022/10/21 08:45:07;;;;;;;0.88;0.70;;;;;;;;;;5051629;28;20041;-68
2022/10/21 08:47:45;;;;;;;1.13;0.70;;;;;;;;;;5050963;28;20029;-68
2022/10/21 08:50:17;;;;;;;1.55;0.70;;;;;;;;;;5050863;28;20033;-68
2022/10/21 08:52:46;;;;;;;2.38;0.80;;;;;;;;;;5045294;28;20072;-67
2022/10/21 08:55:34;;;;;;;0.65;0.50;;;;;;;;;;5046927;28;20025;-68
2022/10/21 08:58:01;;;;;;;0.85;0.68;;;;;;;;;;5049281;28;20452;-68
2022/10/21 09:00:57;;;;;;;1.20;0.65;;;;;;;;;;5049597;28;20028;-68
2022/10/21 09:03:29;;;;;;;1.15;0.63;;;;;;;;;;5046677;28;20620;-68
2022/10/21 09:06:03;;;;;;;3.10;0.70;;;;;;;;;;5050085;28;20064;-68
2022/10/21 09:08:38;;;;;;;2.28;1.08;;;;;;;;;;5049283;28;20124;-68
2022/10/21 09:11:13;;;;;;;1.98;1.10;;;;;;;;;;5050359;28;20426;-68
2022/10/21 09:13:51;;;;;;;2.70;0.93;;;;;;;;;;5049465;28;20515;-68
2022/10/21 09:16:28;;;;;;;0.98;0.70;;;;;;;;;;5050824;28;20086;-68
2022/10/21 09:19:24;;;;;;;0.95;0.60;;;;;;;;;;5049442;28;20086;-68
2022/10/21 09:22:05;;;;;;;2.05;0.88;;;;;;;;;;5050175;28;20027;-68
2022/10/21 09:24:43;;;;;;;1.77;0.90;;;;;;;;;;5050059;28;20059;-67
2022/10/21 09:27:09;;;;;;;1.42;0.77;;;;;;;;;;5050768;28;20071;-68
2022/10/21 09:29:43;;;;;;;2.20;1.10;;;;;;;;;;5050266;28;20039;-68
2022/10/21 09:32:16;;;;;;;6.38;1.70;;;;;;;;;;5061622;28;20079;-68
2022/10/21 09:35:04;;;;;;;3.13;1.33;;;;;;;;;;5070217;28;20031;-68
2022/10/21 09:37:38;;;;;;;3.75;1.00;;;;;;;;;;5069895;28;20107;-68
2022/10/21 09:40:25;;;;;;;2.60;0.90;;;;;;;;;;5056215;28;20506;-68
2022/10/21 09:42:55;;;;;;;1.52;0.90;;;;;;;;;;5050024;28;20091;-68
2022/10/21 09:45:34;;;;;;;1.02;0.82;;;;;;;;;;5049082;28;20118;-68
2022/10/21 09:48:04;;;;;;;1.50;0.98;;;;;;;;;;5048077;28;20041;-68
2022/10/21 09:50:31;;;;;;;2.20;0.95;;;;;;;;;;5041192;28;20044;-68
2022/10/21 09:53:03;;;;;;;3.00;0.80;;;;;;;;;;5049743;28;20067;-68
2022/10/21 09:55:30;;;;;;;1.33;0.90;;;;;;;;;;5049573;28;20029;-68
2022/10/21 09:58:01;;;;;;;1.75;1.10;;;;;;;;;;5047770;28;20024;-67
2022/10/21 10:00:42;;;;;;;1.23;0.93;;;;;;;;;;5044611;28;20021;-68
2022/10/21 10:03:08;;;;;;;7.30;0.93;;;;;;;;;;5049459;28;20040;-68
2022/10/21 10:05:37;;;;;;;1.42;0.90;;;;;;;;;;5049513;28;20067;-68
2022/10/21 10:08:25;;;;;;;1.92;1.02;;;;;;;;;;5049700;28;20625;-68
2022/10/21 10:10:50;;;;;;;2.25;0.82;;;;;;;;;;5049496;28;20048;-68
2022/10/21 10:13:18;;;;;;;5.25;1.25;;;;;;;;;;5047541;28;20118;-68
2022/10/21 10:15:44;;;;;;;3.83;1.08;;;;;;;;;;5031366;28;20059;-68
2022/10/21 10:18:22;;;;;;;2.15;1.10;;;;;;;;;;5030238;28;20022;-68
2022/10/21 10:21:05;;;;;;;2.38;0.82;;;;;;;;;;5027368;28;20056;-68
2022/10/21 10:23:45;;;;;;;3.60;1.10;;;;;;;;;;5029429;28;20033;-68
2022/10/21 10:26:27;;;;;;;1.05;0.95;;;;;;;;;;5030551;28;20693;-67
2022/10/21 10:28:57;;;;;;;1.03;0.83;;;;;;;;;;5047487;28;20033;-68
2022/10/21 10:31:29;;;;;;;2.17;1.10;;;;;;;;;;5068328;28;20275;-68
2022/10/21 10:33:59;;;;;;;1.90;1.10;;;;;;;;;;5069152;28;20043;-67
2022/10/21 10:36:32;;;;;;;2.17;0.90;;;;;;;;;;5069976;28;20066;-68
2022/10/21 10:39:02;;;;;;;2.38;1.00;;;;;;;;;;5064162;28;20037;-68
2022/10/21 10:41:35;;;;;;;2.22;0.80;;;;;;;;;;5048822;28;20541;-68
2022/10/21 10:44:06;;;;;;;3.03;1.00;;;;;;;;;;5054755;28;20048;-68
2022/10/21 10:46:34;;;;;;;4.43;1.00;;;;;;;;;;5047294;28;20025;-68
2022/10/21 10:49:06;;;;;;;1.67;1.15;;;;;;;;;;5045260;28;20041;-69
2022/10/21 10:51:34;;;;;;;6.70;1.08;;;;;;;;;;5047807;28;20588;-67
2022/10/21 10:54:00;;;;;;;1.73;1.00;;;;;;;;;;5044962;28;20025;-69
2022/10/21 10:56:29;;;;;;;1.20;0.80;;;;;;;;;;5047026;28;20431;-68
2022/10/21 10:59:13;;;;;;;7.20;0.77;;;;;;;;;;5048562;28;20028;-69
2022/10/21 11:01:47;;;;;;;2.35;1.20;;;;;;;;;;5055673;28;20040;-69
2022/10/21 11:04:20;;;;;;;3.50;1.33;;;;;;;;;;5064636;28;20591;-68
2022/10/21 11:06:51;;;;;;;1.80;0.83;;;;;;;;;;5044597;28;20057;-68
2022/10/21 11:09:18;;;;;;;6.32;1.67;;;;;;;;;;5048452;28;20267;-69
2022/10/21 11:11:46;;;;;;;3.30;1.20;;;;;;;;;;5047787;28;20044;-68
2022/10/21 11:14:17;;;;;;;2.88;1.00;;;;;;;;;;5050035;28;20083;-68
2022/10/21 11:17:09;;;;;;;1.10;1.00;;;;;;;;;;5042758;28;20485;-68
2022/10/21 11:19:49;;;;;;;1.55;1.00;;;;;;;;;;5047761;28;20426;-68
2022/10/21 11:22:33;;;;;;;1.42;1.00;;;;;;;;;;5045683;28;20033;-68
2022/10/21 11:25:21;;;;;;;1.60;1.00;;;;;;;;;;5042974;28;20029;-69
2022/10/21 11:27:57;;;;;;;3.03;0.82;;;;;;;;;;5047276;28;20033;-68
2022/10/21 11:30:34;;;;;;;2.92;1.20;;;;;;;;;;5047686;28;20497;-68
2022/10/21 11:33:02;;;;;;;4.13;1.10;;;;;;;;;;5047204;28;20120;-68
2022/10/21 11:35:31;;;;;;;4.03;1.05;;;;;;;;;;5045529;28;20064;-68
2022/10/21 11:38:53;;;;;;;3.17;1.00;;;;;;;;;;5027093;28;20041;-69
2022/10/21 11:41:28;;;;;;;1.52;0.90;;;;;;;;;;5003658;28;20412;-68
2022/10/21 11:44:19;;;;;;;0.90;0.63;;;;;;;;;;4999839;28;20081;-68
2022/10/21 11:47:01;;;;;;;4.10;0.93;;;;;;;;;;5054856;28;20115;-68
2022/10/21 11:49:30;;;;;;;1.33;1.00;;;;;;;;;;5067485;28;20584;-68
2022/10/21 11:52:23;;;;;;;2.13;0.82;;;;;;;;;;5066861;28;20040;-68
2022/10/21 11:55:08;;;;;;;1.73;0.82;;;;;;;;;;5066952;28;20047;-68
2022/10/21 11:58:03;;;;;;;1.55;0.80;;;;;;;;;;5057448;28;20075;-68
2022/10/21 12:00:34;;;;;;;1.20;0.80;;;;;;;;;;5044363;28;20021;-68
2022/10/21 12:03:05;;;;;;;0.85;0.75;;;;;;;;;;5060127;28;20054;-68
2022/10/21 12:05:35;;;;;;;1.50;0.80;;;;;;;;;;5066964;28;20127;-68
2022/10/21 12:08:30;;;;;;;0.77;0.60;;;;;;;;;;5066860;28;20536;-68
2022/10/21 12:11:05;;;;;;;0.93;0.70;;;;;;;;;;5066842;28;20047;-68
2022/10/21 12:13:35;;;;;;;4.57;1.20;;;;;;;;;;5063333;28;20029;-68
2022/10/21 12:16:07;;;;;;;1.98;0.70;;;;;;;;;;5065119;28;20025;-68
2022/10/21 12:18:41;;;;;;;0.63;0.60;;;;;;;;;;5065908;28;20066;-68
2022/10/21 12:21:14;;;;;;;4.00;0.60;;;;;;;;;;5047982;28;20682;-68
2022/10/21 12:23:39;;;;;;;0.90;0.60;;;;;;;;;;5044733;28;20525;-68
2022/10/21 12:26:16;;;;;;;3.40;0.70;;;;;;;;;;5042486;28;20134;-67
2022/10/21 12:28:52;;;;;;;1.90;0.77;;;;;;;;;;5044140;28;20510;-68
2022/10/21 12:31:29;;;;;;;1.00;0.70;;;;;;;;;;5040246;28;20432;-67
2022/10/21 12:33:55;;;;;;;4.35;1.15;;;;;;;;;;5035093;28;20079;-68
2022/10/21 12:36:24;;;;;;;1.60;0.60;;;;;;;;;;5044951;28;20450;-67
2022/10/21 12:38:55;;;;;;;1.15;0.70;;;;;;;;;;5039174;28;20053;-68
2022/10/21 12:41:23;;;;;;;1.90;0.47;;;;;;;;;;5027033;28;20044;-68
2022/10/21 12:44:00;;;;;;;1.88;1.27;;;;;;;;;;5025682;28;20041;-68
2022/10/21 12:46:29;;;;;;;0.80;0.60;;;;;;;;;;5037975;28;20037;-68
2022/10/21 12:48:55;;;;;;;0.57;0.50;;;;;;;;;;5036511;28;20039;-67
2022/10/21 12:51:26;;;;;;;1.13;0.70;;;;;;;;;;5035222;28;20013;-68
2022/10/21 12:54:02;;;;;;;2.08;0.73;;;;;;;;;;5044348;28;20066;-68
2022/10/21 12:56:28;;;;;;;1.65;0.70;;;;;;;;;;5046181;28;20573;-68
2022/10/21 12:59:01;;;;;;;0.82;0.60;;;;;;;;;;5029991;28;20045;-67
2022/10/21 13:01:33;;;;;;;1.15;0.55;;;;;;;;;;5033958;28;20025;-67
2022/10/21 13:03:58;;;;;;;1.67;0.70;;;;;;;;;;5029057;28;20461;-68
2022/10/21 13:06:50;;;;;;;0.60;0.50;;;;;;;;;;5029389;28;20029;-68
2022/10/21 13:09:36;;;;;;;0.50;0.50;;;;;;;;;;5029475;28;20037;-68
2022/10/21 13:12:24;;;;;;;0.75;0.55;;;;;;;;;;5029556;28;20045;-68
2022/10/21 13:14:56;;;;;;;3.13;0.70;;;;;;;;;;5036562;28;20044;-68
2022/10/21 13:17:21;;;;;;;0.68;0.63;;;;;;;;;;5047039;28;20060;-67
2022/10/21 13:19:47;;;;;;;0.60;0.60;;;;;;;;;;5043035;28;20482;-68
2022/10/21 13:22:33;;;;;;;0.80;0.60;;;;;;;;;;5048340;28;20040;-68
2022/10/21 13:25:16;;;;;;;2.30;0.60;;;;;;;;;;5049629;28;20116;-68
2022/10/21 13:27:52;;;;;;;0.63;0.60;;;;;;;;;;5048838;28;20029;-68
2022/10/21 13:30:25;;;;;;;0.75;0.60;;;;;;;;;;5049834;28;20100;-68
2022/10/21 13:33:00;;;;;;;1.50;0.68;;;;;;;;;;5048541;28;20037;-68
2022/10/21 13:36:02;;;;;;;3.00;0.60;;;;;;;;;;5049622;28;20033;-68
2022/10/21 13:38:31;;;;;;;0.52;0.52;;;;;;;;;;5045100;28;20068;-68
2022/10/21 13:41:02;;;;;;;1.35;0.60;;;;;;;;;;5050393;28;20082;-66
2022/10/21 13:44:01;;;;;;;1.38;0.63;;;;;;;;;;5047397;28;20418;-68
2022/10/21 13:46:39;;;;;;;1.13;0.70;;;;;;;;;;5036545;28;20128;-68
2022/10/21 13:49:22;;;;;;;0.50;0.50;;;;;;;;;;5049324;28;20043;-68
2022/10/21 13:51:50;;;;;;;0.65;0.50;;;;;;;;;;5048717;28;20167;-68
2022/10/21 13:54:15;;;;;;;1.02;0.77;;;;;;;;;;5041061;28;20029;-68
2022/10/21 13:56:42;;;;;;;1.73;0.60;;;;;;;;;;5028751;28;20060;-68
2022/10/21 13:59:31;;;;;;;1.05;0.80;;;;;;;;;;5029421;28;20072;-68
2022/10/21 14:01:57;;;;;;;0.80;0.65;;;;;;;;;;5029416;28;20053;-68
2022/10/21 14:04:28;;;;;;;1.05;0.65;;;;;;;;;;5034690;28;20040;-68
2022/10/21 14:06:56;;;;;;;1.75;0.65;;;;;;;;;;5048649;28;20051;-68
2022/10/21 14:09:29;;;;;;;0.60;0.60;;;;;;;;;;5049780;28;20050;-68
2022/10/21 14:12:00;;;;;;;1.05;0.70;;;;;;;;;;5048644;28;20033;-68
2022/10/21 14:14:27;;;;;;;0.77;0.70;;;;;;;;;;5045722;28;20529;-68
2022/10/21 14:17:01;;;;;;;1.27;0.80;;;;;;;;;;5034449;28;20789;-68
2022/10/21 14:19:31;;;;;;;3.33;1.00;;;;;;;;;;5037089;28;20048;-66
2022/10/21 14:21:59;;;;;;;1.20;0.80;;;;;;;;;;5041803;28;20044;-66
2022/10/21 14:24:47;;;;;;;7.30;0.95;;;;;;;;;;5038495;28;20041;-66
2022/10/21 14:27:20;;;;;;;6.43;1.23;;;;;;;;;;5040015;28;20040;-67
2022/10/21 14:29:46;;;;;;;2.33;0.70;;;;;;;;;;5040557;28;20580;-67
2022/10/21 14:32:21;;;;;;;3.05;0.80;;;;;;;;;;5043056;28;20600;-67
2022/10/21 14:35:05;;;;;;;1.95;0.70;;;;;;;;;;5036503;28;20085;-67
2022/10/21 14:37:40;;;;;;;2.20;0.70;;;;;;;;;;5050547;28;20578;-66
2022/10/21 14:40:22;;;;;;;0.85;0.68;;;;;;;;;;5036810;28;20045;-67
2022/10/21 14:42:49;;;;;;;1.67;0.73;;;;;;;;;;5029234;28;20124;-66
2022/10/21 14:45:19;;;;;;;2.22;0.60;;;;;;;;;;5039525;28;20431;-63
2022/10/21 14:47:50;;;;;;;0.98;0.80;;;;;;;;;;5046360;28;20033;-66
2022/10/21 14:50:22;;;;;;;2.58;0.70;;;;;;;;;;5036427;28;20053;-67
2022/10/21 14:52:49;;;;;;;1.42;0.93;;;;;;;;;;5044057;28;20549;-67
2022/10/21 14:55:18;;;;;;;1.40;0.55;;;;;;;;;;5038014;28;20675;-67
2022/10/21 14:57:59;;;;;;;1.75;0.70;;;;;;;;;;5038750;28;20035;-67
2022/10/21 15:00:33;;;;;;;2.67;0.60;;;;;;;;;;5048093;28;20529;-67
2022/10/21 15:03:00;;;;;;;1.00;0.60;;;;;;;;;;5040197;28;20526;-67